LESOLEMH

Guest
Details From LESO - San_Sebastian
To LEMH - Menorca
Flight Number -
Tags decoded
Created
Modified
Stats Distance 342 nm / 633 km
Max Altitude 0 ft / 0 m
Waypoints 2
Social Downloads 0
Likes 0
Share VATSIM

Download

Looking for another format? Having issues loading an existing format? Contact us
Advertisement - Login to hide

Notes

Requested: LESO LEMH

Route

LESO LEMH

ID Type Via Altitude Latitude Longitude Leg Dist Tot Dist Heading (true) Name
O LESO APT - 0 ft / 0 m 43.35652˚ -1.79061˚ - 0 nm - San_Sebastian
O LEMH APT - 0 ft / 0 m 39.86222˚ 4.21976˚ 341 nm 341 nm 126° / 130° Menorca

Altitude Profile

Advertisement - Login to hide

Weather


0- 5 10 15 20 25 30 35+ Temperature / ° C

Clouds and Precipitation
Forecast for 2017-12-16 06:00 UTC. Updated 6 minutes ago

Ground ~20,000 ft ~40,000 ft Winds

LESO

Details ICAO LESO (EAS)
Name San_Sebastian
Region Spain
Timezone Europe/Madrid (UTC+1.0)
Stats Elevation 14 ft / 4 m (AMSL)
Location 43.356520° -1.790611°
Runways 1
Magnetic Variation 0.297° W

METAR

LESO 160300Z AUTO 32008G22KT 280V020 9999 SCT034/// SCT041/// BKN050/// 11/03 Q1016

Decode

TAF

TAF LESO 152300Z 1600/1624 27008KT 9999 SCT030 BKN050 TX11/1614Z TN05/1607Z TEMPO 1600/1609 30015G25KT TEMPO 1600/1624 RA TEMPO 1600/1612 3000 SHRA SCT030TCU PROB30 TEMPO 1600/1612 TS SHGR SCT030CB

Decode

Departure Runways

ID Width Length Bearing (true) Bearing (mag) Surface Threshold Offset Overrun Length
04 148 ft / 45 m 5,762 ft / 1,756 m 38.68° 38.98° Asphalt 0 ft / 0 m 0 ft / 0 m
22 148 ft / 45 m 5,762 ft / 1,756 m 218.69° 218.99° Asphalt 0 ft / 0 m 0 ft / 0 m

LEMH

Details ICAO LEMH (MAH)
Name Menorca
Region Spain
Timezone Europe/Madrid (UTC+1.0)
Stats Elevation 298 ft / 91 m (AMSL)
Location 39.862221° 4.219762°
Runways 2
Magnetic Variation 1.326° E

METAR

LEMH 160300Z AUTO 31005KT 8000 NCD 06/04 Q1009

Decode

TAF

TAF LEMH 160200Z 1603/1703 33005KT 9999 FEW030 TX13/1612Z TN08/1606Z PROB30 TEMPO 1603/1615 FEW020TCU BKN030 BECMG 1605/1608 01013KT PROB40 TEMPO 1609/1618 01016G26KT BECMG 1618/1621 01018G28KT

Decode

Destination Runways

ID Width Length Bearing (true) Bearing (mag) Surface Threshold Offset Overrun Length
01L 148 ft / 45 m 7,723 ft / 2,354 m 8.97° 7.64° Asphalt 0 ft / 0 m 164 ft / 50 m
01R 148 ft / 45 m 6,903 ft / 2,104 m 8.97° 7.64° Asphalt 0 ft / 0 m 0 ft / 0 m
19L 148 ft / 45 m 6,903 ft / 2,104 m 188.97° 187.64° Asphalt 0 ft / 0 m 0 ft / 0 m
19R 148 ft / 45 m 7,723 ft / 2,354 m 188.97° 187.64° Asphalt 0 ft / 0 m 164 ft / 50 m

Approach Navaids

Runway Type Ident Frequency Range Bearing (true) Bearing (mag) Slope Elevation
01L Localiser IMH 110.30 MHz 18 nm / 33 km 8.97° 7.64° - 298 ft / 91 m (AMSL)
01L Glidescope IMH 110.30 MHz 10 nm / 19 km 8.97° 7.64° 3.00° 298 ft / 91 m (AMSL)
01L DME IMH 110.30 MHz 18 nm / 33 km - - - 298 ft / 91 m (AMSL)

Popular Alternatives